Weather History for Hooper Bay, AK

Change the Weather History Date:

Monday, April 14, 2014

  Actual Average Record
Temperature  
Mean Temperature 42 °F -  
Max Temperature 51 °F 27 °F 51 °F (2014)
Min Temperature 33 °F 18 °F 0 °F (1999)
Degree Days  
Heating Degree Days 23    
Moisture  
Dew Point 29 °F    
Average Humidity 56    
Maximum Humidity 93    
Minimum Humidity 43    
Precipitation  
Precipitation 0.00 in - - ()
Sea Level Pressure  
Sea Level Pressure 29.68 in    
Wind  
Wind Speed 21 mph (SSE)    
Max Wind Speed 33 mph    
Max Gust Speed 40 mph    
Visibility 8 miles    
Events      
Averages and records for this station are not official NWS values.
T = Trace of Precipitation, MM = Missing Value Source: NWS Daily Summary

Daily Weather History Graph

Daily Weather History Graph

Search for Another Location

Airport:

Trip Planner

Search our weather history database for the weather conditions in past years. The results will help you decide how hot, cold, wet, or windy it might be!

Date:

Astronomy

Apr. 14, 2014 Rise Set
Actual Time 7:45 AM AKDT 10:26 PM AKDT
Civil Twilight 6:56 AM AKDT 11:15 PM AKDT
Nautical Twilight 5:50 AM AKDT 12:22 AM AKDT
Astronomical Twilight 4:05 AM AKDT 2:14 AM AKDT
Moon 10:18 PM AKDT (4/14) 7:34 AM AKDT (4/14)
Length of Visible Light 16h 19m
Length of Day
14h 40m
Full, 100% of the Moon is Illuminated
Apr 14
Full
Apr 14
Full
Apr 21
Last Quarter
Apr 28
New
May 6
First Quarter

Hourly Weather History & Observations

Time (AKDT) Temp. Windchill Dew Point Humidity Pressure Visibility Wind Dir Wind Speed Gust Speed Precip Events Conditions
12:16 AM 48.2 °F - 28.4 °F 46% 29.61 in 10.0 mi East 20.7 mph - N/A   Overcast
12:36 AM 46.4 °F 38.3 °F 28.4 °F 50% 29.62 in 10.0 mi East 23.0 mph - N/A   Overcast
12:56 AM 46.4 °F 37.9 °F 30.2 °F 53% 29.61 in 10.0 mi ESE 25.3 mph 31.1 mph N/A   Overcast
1:16 AM 48.2 °F - 30.2 °F 50% 29.61 in 10.0 mi ESE 24.2 mph - N/A   Overcast
1:36 AM 48.2 °F - 30.2 °F 50% 29.59 in 10.0 mi East 20.7 mph 27.6 mph N/A   Mostly Cloudy
1:56 AM 50.0 °F - 30.2 °F 47% 29.59 in 10.0 mi East 23.0 mph - N/A   Overcast
2:16 AM 50.0 °F - 30.2 °F 47% 29.58 in 10.0 mi East 24.2 mph - N/A   Overcast
2:36 AM 50.0 °F - 30.2 °F 47% 29.57 in 10.0 mi East 25.3 mph - N/A   Overcast
2:56 AM 50.0 °F - 30.2 °F 47% 29.57 in 10.0 mi ESE 27.6 mph 32.2 mph N/A   Overcast
3:16 AM 50.0 °F - 30.2 °F 47% 29.56 in 10.0 mi ESE 28.8 mph 34.5 mph N/A   Overcast
3:36 AM 48.2 °F - 30.2 °F 50% 29.55 in 10.0 mi ESE 31.1 mph - N/A   Overcast
3:56 AM 48.2 °F - 30.2 °F 50% 29.54 in 10.0 mi ESE 32.2 mph 38.0 mph N/A   Overcast
4:16 AM 48.2 °F - 30.2 °F 50% 29.54 in 10.0 mi ESE 33.4 mph 39.1 mph N/A   Overcast
4:36 AM 50.0 °F - 30.2 °F 47% 29.53 in 10.0 mi ESE 33.4 mph 40.3 mph N/A   Overcast
4:56 AM 48.2 °F - 30.2 °F 50% 29.52 in 6.0 mi ESE 32.2 mph 38.0 mph N/A   Overcast
5:16 AM 48.2 °F - 30.2 °F 50% 29.52 in 5.0 mi SE 32.2 mph 36.8 mph N/A   Overcast
5:36 AM 51.8 °F - 30.2 °F 44% 29.51 in 3.0 mi SE 23.0 mph 29.9 mph N/A   Overcast
5:56 AM 48.2 °F - 30.2 °F 50% 29.51 in 4.0 mi SE 20.7 mph 34.5 mph N/A   Overcast
6:16 AM 48.2 °F - 30.2 °F 50% 29.51 in 4.0 mi SSE 21.9 mph 32.2 mph N/A   Overcast
6:36 AM 48.2 °F - 30.2 °F 50% 29.52 in 7.0 mi South 23.0 mph 34.5 mph N/A   Overcast
6:56 AM 46.4 °F 38.3 °F 28.4 °F 50% 29.52 in 5.0 mi South 23.0 mph 28.8 mph N/A   Overcast
7:16 AM 48.2 °F - 30.2 °F 50% 29.53 in 10.0 mi South 20.7 mph 29.9 mph N/A   Overcast
7:36 AM 50.0 °F - 28.4 °F 43% 29.54 in 10.0 mi South 19.6 mph 27.6 mph N/A   Overcast
7:56 AM 48.2 °F - 28.4 °F 46% 29.55 in 10.0 mi South 23.0 mph 29.9 mph N/A   Overcast
8:16 AM 48.2 °F - 28.4 °F 46% 29.56 in 10.0 mi South 19.6 mph 25.3 mph N/A   Overcast
8:36 AM 48.2 °F - 28.4 °F 46% 29.57 in 10.0 mi South 20.7 mph 27.6 mph N/A   Overcast
8:56 AM 46.4 °F 38.7 °F 28.4 °F 50% 29.58 in 5.0 mi South 20.7 mph 27.6 mph N/A   Overcast
9:16 AM 48.2 °F - 28.4 °F 46% 29.60 in 5.0 mi SSW 29.9 mph - N/A   Overcast
9:36 AM 50.0 °F - 28.4 °F 43% 29.61 in 3.0 mi SSW 23.0 mph 29.9 mph N/A   Overcast
9:56 AM 50.0 °F - 28.4 °F 43% 29.62 in 10.0 mi SSW 25.3 mph 33.4 mph N/A   Overcast
10:16 AM 50.0 °F - 28.4 °F 43% 29.63 in 10.0 mi SSW 27.6 mph 36.8 mph N/A   Overcast
10:36 AM 48.2 °F - 28.4 °F 46% 29.65 in 10.0 mi SW 25.3 mph 34.5 mph N/A   Overcast
10:56 AM 46.4 °F 37.5 °F 26.6 °F 46% 29.66 in 10.0 mi SSW 27.6 mph 31.1 mph N/A   Overcast
11:16 AM 42.8 °F 32.9 °F 26.6 °F 53% 29.68 in 10.0 mi SSW 26.5 mph 33.4 mph N/A   Overcast
11:36 AM 50.0 °F - 28.4 °F 43% 29.69 in 10.0 mi SW 25.3 mph 31.1 mph N/A   Overcast
11:56 AM 48.2 °F - 28.4 °F 46% 29.70 in 10.0 mi SW 24.2 mph 28.8 mph N/A   Overcast
12:16 PM 48.2 °F - 28.4 °F 46% 29.72 in 10.0 mi SSW 21.9 mph 29.9 mph N/A   Overcast
12:36 PM 48.2 °F - 26.6 °F 43% 29.73 in 10.0 mi SSW 21.9 mph 28.8 mph N/A   Overcast
12:56 PM 46.4 °F 39.8 °F 26.6 °F 46% 29.73 in 10.0 mi SSW 16.1 mph 25.3 mph N/A   Overcast
1:16 PM 44.6 °F 38.4 °F 28.4 °F 53% 29.73 in 10.0 mi SSW 12.7 mph 19.6 mph N/A   Mostly Cloudy
1:36 PM 46.4 °F 40.7 °F 28.4 °F 50% 29.74 in 10.0 mi SSW 12.7 mph 18.4 mph N/A   Clear
1:56 PM 46.4 °F 41.5 °F 28.4 °F 50% 29.75 in 10.0 mi South 10.4 mph - N/A   Clear
2:16 PM 42.8 °F 37.5 °F 28.4 °F 57% 29.75 in 10.0 mi South 9.2 mph - N/A   Clear
2:36 PM 46.4 °F 40.4 °F 28.4 °F 50% 29.76 in 10.0 mi South 13.8 mph 17.3 mph N/A   Clear
2:56 PM 44.6 °F 38.1 °F 28.4 °F 53% 29.77 in 10.0 mi South 13.8 mph 19.6 mph N/A   Clear
3:16 PM 44.6 °F 37.8 °F 28.4 °F 53% 29.78 in 10.0 mi South 15.0 mph 19.6 mph N/A   Clear
3:36 PM 44.6 °F 37.8 °F 28.4 °F 53% 29.78 in 10.0 mi South 15.0 mph - N/A   Clear
3:56 PM 44.6 °F 37.4 °F 28.4 °F 53% 29.78 in 10.0 mi South 16.1 mph 23.0 mph N/A   Clear
4:16 PM 42.8 °F 35.1 °F 28.4 °F 57% 29.79 in 0.8 mi South 16.1 mph 20.7 mph N/A   Overcast
4:36 PM 44.6 °F 37.2 °F 28.4 °F 53% 29.79 in 0.8 mi South 17.3 mph 21.9 mph N/A   Overcast
4:56 PM 42.8 °F 35.4 °F 26.6 °F 53% 29.80 in 0.8 mi South 15.0 mph 19.6 mph N/A   Overcast
5:16 PM 42.8 °F 36.6 °F 26.6 °F 53% 29.80 in 0.8 mi South 11.5 mph 21.9 mph N/A   Overcast
5:36 PM 37.4 °F 28.9 °F 28.4 °F 70% 29.80 in 0.8 mi South 13.8 mph 23.0 mph N/A   Overcast
5:56 PM 33.8 °F 24.8 °F 28.4 °F 81% 29.80 in 1.0 mi South 12.7 mph 18.4 mph N/A   Overcast
6:16 PM 35.6 °F 27.5 °F 28.4 °F 75% 29.80 in 3.0 mi South 11.5 mph - N/A   Overcast
6:36 PM 37.4 °F 29.8 °F 28.4 °F 70% 29.80 in 5.0 mi South 11.5 mph - N/A   Overcast
6:56 PM 39.2 °F 33.0 °F 28.4 °F 65% 29.80 in 10.0 mi SSE 9.2 mph - N/A   Overcast
7:16 PM 39.2 °F 33.0 °F 30.2 °F 70% 29.80 in 10.0 mi SE 9.2 mph - N/A   Scattered Clouds
7:36 PM 46.4 °F 41.1 °F 28.4 °F 50% 29.80 in 10.0 mi SSE 11.5 mph - N/A   Scattered Clouds
7:56 PM 42.8 °F 36.2 °F 28.4 °F 57% 29.81 in 10.0 mi SSE 12.7 mph - N/A   Overcast
8:16 PM 33.8 °F 26.4 °F 28.4 °F 81% 29.81 in 10.0 mi SSE 9.2 mph - N/A   Overcast
8:36 PM 33.8 °F 24.3 °F 32.0 °F 93% 29.81 in 10.0 mi SE 13.8 mph 17.3 mph N/A   Overcast
8:56 PM 33.8 °F 24.8 °F 26.6 °F 75% 29.80 in 10.0 mi ESE 12.7 mph - N/A   Overcast
9:16 PM 33.8 °F 23.9 °F 30.2 °F 87% 29.80 in 10.0 mi SE 15.0 mph - N/A   Overcast
9:36 PM 33.8 °F 23.5 °F 28.4 °F 81% 29.80 in 10.0 mi SE 16.1 mph - N/A   Overcast
9:56 PM 33.8 °F 22.8 °F 28.4 °F 81% 29.80 in 10.0 mi ESE 18.4 mph - N/A   Overcast
10:16 PM 33.8 °F 23.5 °F 28.4 °F 81% 29.80 in 10.0 mi ESE 16.1 mph 19.6 mph N/A   Overcast
10:36 PM 33.8 °F 23.5 °F 28.4 °F 81% 29.79 in 10.0 mi ESE 16.1 mph 23.0 mph N/A   Overcast
10:56 PM 35.6 °F 26.6 °F 30.2 °F 81% 29.79 in 10.0 mi ESE 13.8 mph - N/A   Overcast
11:16 PM 35.6 °F 28.0 °F 30.2 °F 81% 29.79 in 10.0 mi East 10.4 mph - N/A   Overcast
11:36 PM 39.2 °F 31.6 °F 30.2 °F 70% 29.79 in 10.0 mi ESE 12.7 mph - N/A   Overcast
11:56 PM 46.4 °F 40.4 °F 28.4 °F 50% 29.79 in 10.0 mi ESE 13.8 mph 19.6 mph N/A   Overcast